ES-0031 weather

La Segarra Airfield
Sant Guim de Freixenet, Lleida, Spain

Public forecast

Using degrees Celsius for public forecast. Weather courtesy of forecast.io.

Closest aviation weather report (METAR) to La Segarra Airfield

Closest report is Sabadell Airport, 32.5 nm (60.1 km) ESE. Retrieved 2020/08/07 14:30 UTC (28 minutes ago):

LELL 071430Z 19009KT 160V230 CAVOK 35/15 Q1017

Closest aviation forecast (TAF) to La Segarra Airfield

Closest forecast is Sabadell Airport, 32.5 nm (60.1 km) ESE. Retrieved 2020/08/07 15:31 UTC (0 seconds ago):

TAF LELL 071400Z 0715/0815 19010KT 9999 FEW040 TX36/0813Z TN20/0805Z BECMG 0718/0720 25005KT